createdAt,value
2022-12-18T00:01:27.316Z,-2.19
2022-12-18T00:03:56.379Z,-2.28
2022-12-18T00:06:25.260Z,-2.33
2022-12-18T00:08:53.326Z,-2.40
2022-12-18T00:11:22.950Z,-2.43
2022-12-18T00:13:51.157Z,-2.44
2022-12-18T00:16:21.395Z,-2.46
2022-12-18T00:18:50.361Z,-2.41
2022-12-18T00:21:19.351Z,-2.35
2022-12-18T00:23:48.383Z,-2.25
2022-12-18T00:26:24.247Z,-2.19
2022-12-18T00:28:53.511Z,-2.11
2022-12-18T00:31:24.360Z,-2.08
2022-12-18T00:33:56.211Z,-2.20
2022-12-18T00:36:27.461Z,-2.25
2022-12-18T00:38:56.905Z,-2.20
2022-12-18T00:41:43.921Z,-2.12
2022-12-18T00:44:13.904Z,-2.05
2022-12-18T00:46:43.003Z,-2.00
2022-12-18T00:49:10.623Z,-2.06
2022-12-18T00:51:38.221Z,-2.16
2022-12-18T00:54:05.812Z,-2.19
2022-12-18T00:56:33.121Z,-2.26
2022-12-18T00:59:00.605Z,-2.38
2022-12-18T01:01:28.789Z,-2.39
2022-12-18T01:03:56.384Z,-2.36
2022-12-18T01:06:24.195Z,-2.34
2022-12-18T01:08:51.834Z,-2.31
2022-12-18T01:11:20.857Z,-2.27
2022-12-18T01:13:49.848Z,-2.25
2022-12-18T01:16:18.139Z,-2.23
2022-12-18T01:18:45.813Z,-2.25
2022-12-18T01:21:16.652Z,-2.27
2022-12-18T01:23:44.006Z,-2.24
2022-12-18T01:26:16.620Z,-2.21
2022-12-18T01:28:45.129Z,-2.15
2022-12-18T01:31:21.711Z,-2.09
2022-12-18T01:33:50.346Z,-2.04
2022-12-18T01:36:22.566Z,-2.02
2022-12-18T01:38:51.648Z,-2.04
2022-12-18T01:41:49.456Z,-2.07
2022-12-18T01:44:58.265Z,-2.17
2022-12-18T01:47:39.619Z,-2.23
2022-12-18T01:50:14.058Z,-2.27
2022-12-18T01:52:44.219Z,-2.32
2022-12-18T01:55:12.793Z,-2.38
2022-12-18T01:57:42.393Z,-2.43
2022-12-18T02:00:16.739Z,-2.47
2022-12-18T02:02:46.693Z,-2.46
2022-12-18T02:05:24.206Z,-2.49
2022-12-18T02:07:57.617Z,-2.53
2022-12-18T02:10:31.325Z,-2.62
2022-12-18T02:13:21.578Z,-2.65
2022-12-18T02:16:04.264Z,-2.69
2022-12-18T02:18:38.579Z,-2.79
2022-12-18T02:21:16.501Z,-2.80
2022-12-18T02:23:52.080Z,-2.79
2022-12-18T02:26:42.002Z,-2.70
2022-12-18T02:29:15.688Z,-2.62
2022-12-18T02:31:50.599Z,-2.57
2022-12-18T02:34:20.801Z,-2.55
2022-12-18T02:36:50.440Z,-2.53
2022-12-18T02:39:21.500Z,-2.58
2022-12-18T02:42:00.344Z,-2.65
2022-12-18T02:44:27.581Z,-2.74
2022-12-18T02:46:55.432Z,-2.87
2022-12-18T02:49:32.241Z,-2.95
2022-12-18T02:52:10.390Z,-2.98
2022-12-18T02:54:48.728Z,-2.98
2022-12-18T02:57:49.380Z,-3.01
2022-12-18T03:00:32.746Z,-3.00
2022-12-18T03:03:20.634Z,-3.11
2022-12-18T03:05:57.057Z,-3.17
2022-12-18T03:08:39.846Z,-3.17
2022-12-18T03:11:11.071Z,-3.09
2022-12-18T03:13:51.515Z,-2.95
2022-12-18T03:16:26.994Z,-2.84
2022-12-18T03:19:08.867Z,-2.78
2022-12-18T03:21:43.691Z,-2.74
2022-12-18T03:24:11.915Z,-2.74
2022-12-18T03:26:44.956Z,-2.79
2022-12-18T03:29:19.510Z,-2.82
2022-12-18T03:31:52.845Z,-2.84
2022-12-18T03:34:31.898Z,-2.85
2022-12-18T03:37:03.926Z,-2.86
2022-12-18T03:39:33.302Z,-2.90
2022-12-18T03:42:03.671Z,-2.96
2022-12-18T03:44:53.450Z,-3.02
2022-12-18T03:47:40.624Z,-3.04
2022-12-18T03:50:17.874Z,-3.04
2022-12-18T03:52:55.616Z,-3.03
2022-12-18T03:55:27.100Z,-3.02
2022-12-18T03:58:00.437Z,-2.98
2022-12-18T04:00:32.582Z,-2.95
2022-12-18T04:03:06.342Z,-2.92
2022-12-18T04:05:44.464Z,-2.92
2022-12-18T04:08:12.688Z,-2.93
2022-12-18T04:10:43.167Z,-2.92
2022-12-18T04:13:11.003Z,-2.93
2022-12-18T04:15:39.503Z,-2.93
2022-12-18T04:18:08.658Z,-2.95
2022-12-18T04:20:41.355Z,-2.95
2022-12-18T04:23:09.221Z,-2.96
2022-12-18T04:25:37.381Z,-2.97
2022-12-18T04:28:12.123Z,-2.98
2022-12-18T04:30:39.656Z,-3.03
2022-12-18T04:33:11.765Z,-3.09
2022-12-18T04:35:41.046Z,-3.17
2022-12-18T04:38:11.887Z,-3.18
2022-12-18T04:40:39.594Z,-3.11
2022-12-18T04:43:13.321Z,-3.04
2022-12-18T04:45:40.778Z,-3.02
2022-12-18T04:48:07.940Z,-3.02
2022-12-18T04:50:35.841Z,-3.02
2022-12-18T04:53:03.002Z,-3.05
2022-12-18T04:55:30.352Z,-3.07
2022-12-18T04:57:58.325Z,-3.15
2022-12-18T05:00:25.531Z,-3.17
2022-12-18T05:02:53.138Z,-3.20
2022-12-18T05:05:21.108Z,-3.21
2022-12-18T05:07:48.320Z,-3.26
2022-12-18T05:10:15.548Z,-3.33
2022-12-18T05:12:58.753Z,-3.31
2022-12-18T05:15:30.848Z,-3.28
2022-12-18T05:17:59.362Z,-3.31
2022-12-18T05:20:28.077Z,-3.32
2022-12-18T05:22:55.965Z,-3.33
2022-12-18T05:25:24.359Z,-3.32
2022-12-18T05:27:52.302Z,-3.31
2022-12-18T05:30:19.577Z,-3.32
2022-12-18T05:32:47.161Z,-3.42
2022-12-18T05:35:15.075Z,-3.50
2022-12-18T05:37:43.455Z,-3.56
2022-12-18T05:40:11.805Z,-3.60
2022-12-18T05:42:39.530Z,-3.67
2022-12-18T05:45:07.280Z,-3.77
2022-12-18T05:47:35.621Z,-3.81
2022-12-18T05:50:03.485Z,-3.82
2022-12-18T05:52:31.469Z,-3.85
2022-12-18T05:54:59.672Z,-3.89
2022-12-18T05:57:27.687Z,-3.91
2022-12-18T05:59:56.270Z,-4.01
2022-12-18T06:02:23.804Z,-4.11
2022-12-18T06:04:51.475Z,-4.20
2022-12-18T06:07:18.795Z,-4.23
2022-12-18T06:09:46.454Z,-4.26
2022-12-18T06:12:14.822Z,-4.35
2022-12-18T06:14:42.051Z,-4.43
2022-12-18T06:17:09.546Z,-4.54
2022-12-18T06:19:37.754Z,-4.64
2022-12-18T06:22:04.886Z,-4.74
2022-12-18T06:24:33.695Z,-4.84
2022-12-18T06:27:01.453Z,-4.95
2022-12-18T06:29:28.747Z,-5.06
2022-12-18T06:31:56.267Z,-5.09
2022-12-18T06:34:23.746Z,-5.11
2022-12-18T06:36:51.141Z,-5.15
2022-12-18T06:39:18.598Z,-5.19
2022-12-18T06:41:45.943Z,-5.19
2022-12-18T06:44:13.151Z,-5.17
2022-12-18T06:46:41.385Z,-5.14
2022-12-18T06:49:10.492Z,-5.11
2022-12-18T06:51:37.886Z,-5.04
2022-12-18T06:54:05.795Z,-4.90
2022-12-18T06:56:33.391Z,-4.78
2022-12-18T06:59:00.668Z,-4.74
2022-12-18T07:01:28.567Z,-4.69
2022-12-18T07:03:57.745Z,-4.68
2022-12-18T07:06:26.539Z,-4.66
2022-12-18T07:08:54.773Z,-4.63
2022-12-18T07:11:22.659Z,-4.60
2022-12-18T07:13:49.804Z,-4.60
2022-12-18T07:16:24.723Z,-4.60
2022-12-18T07:18:55.655Z,-4.51
2022-12-18T07:21:24.775Z,-4.43
2022-12-18T07:23:52.554Z,-4.31
2022-12-18T07:26:21.861Z,-4.23
2022-12-18T07:28:50.420Z,-4.22
2022-12-18T07:31:21.598Z,-4.17
2022-12-18T07:33:50.544Z,-4.18
2022-12-18T07:36:19.352Z,-4.13
2022-12-18T07:38:51.199Z,-4.12
2022-12-18T07:41:19.263Z,-4.16
2022-12-18T07:43:47.171Z,-4.17
2022-12-18T07:46:15.705Z,-4.30
2022-12-18T07:48:44.276Z,-4.35
2022-12-18T07:51:14.324Z,-4.24
2022-12-18T07:53:43.309Z,-4.24
2022-12-18T07:56:29.547Z,-4.19
2022-12-18T07:58:58.759Z,-4.16
2022-12-18T08:01:26.286Z,-4.17
2022-12-18T08:03:53.866Z,-4.19
2022-12-18T08:06:22.562Z,-4.24
2022-12-18T08:08:53.209Z,-4.24
2022-12-18T08:11:20.510Z,-4.29
2022-12-18T08:13:49.194Z,-4.33
2022-12-18T08:16:17.170Z,-4.21
2022-12-18T08:18:44.774Z,-4.11
2022-12-18T08:21:19.107Z,-4.02
2022-12-18T08:23:50.416Z,-4.09
2022-12-18T08:26:19.636Z,-4.07
2022-12-18T08:28:48.682Z,-3.96
2022-12-18T08:31:17.762Z,-3.92
2022-12-18T08:33:45.583Z,-3.97
2022-12-18T08:36:13.206Z,-4.00
2022-12-18T08:38:40.605Z,-4.00
2022-12-18T08:41:11.997Z,-3.90
2022-12-18T08:43:59.136Z,-3.78
2022-12-18T08:46:28.894Z,-3.75
2022-12-18T08:48:56.791Z,-3.64
2022-12-18T08:51:24.472Z,-3.39
2022-12-18T08:53:52.508Z,-3.11
2022-12-18T08:56:19.801Z,-2.85
2022-12-18T08:59:00.370Z,-2.71
2022-12-18T09:01:37.923Z,-2.57
2022-12-18T09:04:11.153Z,-2.36
2022-12-18T09:06:39.214Z,-2.26
2022-12-18T09:09:07.174Z,-2.19
2022-12-18T09:11:34.669Z,-2.10
2022-12-18T09:14:02.517Z,-1.93
2022-12-18T09:16:32.225Z,-1.69
2022-12-18T09:19:01.060Z,-1.49
2022-12-18T09:21:35.928Z,-1.40
2022-12-18T09:24:07.319Z,-1.36
2022-12-18T09:26:37.288Z,-1.23
2022-12-18T09:29:04.925Z,-1.18
2022-12-18T09:31:32.238Z,-1.22
2022-12-18T09:34:00.084Z,-1.20
2022-12-18T09:36:27.383Z,-1.31
2022-12-18T09:38:55.431Z,-1.59
2022-12-18T09:41:22.994Z,-1.77
2022-12-18T09:43:54.919Z,-1.82
2022-12-18T09:46:34.589Z,-1.91
2022-12-18T09:49:05.909Z,-2.07
2022-12-18T09:51:43.029Z,-2.20
2022-12-18T09:54:21.336Z,-2.29
2022-12-18T09:56:49.129Z,-2.33
2022-12-18T09:59:37.495Z,-2.38
2022-12-18T10:02:33.961Z,-2.37
2022-12-18T10:05:09.598Z,-2.34
2022-12-18T10:07:47.250Z,-2.45
2022-12-18T10:10:27.371Z,-2.51
2022-12-18T10:13:04.520Z,-2.47
2022-12-18T10:15:41.307Z,-2.45
2022-12-18T10:18:27.435Z,-2.47
2022-12-18T10:21:24.103Z,-2.55
2022-12-18T10:24:19.059Z,-2.57
2022-12-18T10:26:48.446Z,-2.55
2022-12-18T10:29:16.921Z,-2.49
2022-12-18T10:31:44.361Z,-2.49
2022-12-18T10:34:14.932Z,-2.48
2022-12-18T10:36:43.011Z,-2.45
2022-12-18T10:39:37.635Z,-2.43
2022-12-18T10:42:17.720Z,-2.35
2022-12-18T10:44:45.645Z,-2.35
2022-12-18T10:47:19.565Z,-2.32
2022-12-18T10:49:53.522Z,-2.38
2022-12-18T10:52:26.928Z,-2.46
2022-12-18T10:55:06.087Z,-2.42
2022-12-18T10:57:37.567Z,-2.38
2022-12-18T11:00:29.254Z,-2.39
2022-12-18T11:02:57.627Z,-2.39
2022-12-18T11:05:31.761Z,-2.42
2022-12-18T11:08:01.067Z,-2.38
2022-12-18T11:10:38.551Z,-2.36
2022-12-18T11:13:18.309Z,-2.42
2022-12-18T11:15:46.495Z,-2.47
2022-12-18T11:18:26.900Z,-2.47
2022-12-18T11:21:15.533Z,-2.49
2022-12-18T11:23:54.899Z,-2.47
2022-12-18T11:26:35.433Z,-2.49
2022-12-18T11:29:11.590Z,-2.49
2022-12-18T11:31:38.948Z,-2.51
2022-12-18T11:34:54.706Z,-2.50
2022-12-18T11:37:27.820Z,-2.46
2022-12-18T11:40:00.500Z,-2.48
2022-12-18T11:42:43.569Z,-2.47
2022-12-18T11:45:14.244Z,-2.42
2022-12-18T11:47:45.464Z,-2.47
2022-12-18T11:50:32.629Z,-2.46
2022-12-18T11:53:05.645Z,-2.43
2022-12-18T11:55:52.672Z,-2.45
2022-12-18T11:58:47.614Z,-2.39
2022-12-18T12:01:56.996Z,-2.36
2022-12-18T12:04:34.934Z,-2.33
2022-12-18T12:07:05.678Z,-2.25
2022-12-18T12:09:52.268Z,-2.27
2022-12-18T12:12:49.539Z,-2.40
2022-12-18T12:15:29.999Z,-2.44
2022-12-18T12:18:11.475Z,-2.52
2022-12-18T12:21:05.545Z,-2.55
2022-12-18T12:23:55.869Z,-2.59
2022-12-18T12:26:26.120Z,-2.63
2022-12-18T12:29:22.903Z,-2.66
2022-12-18T12:32:15.646Z,-2.69
2022-12-18T12:35:00.831Z,-2.70
2022-12-18T12:37:45.283Z,-2.77
2022-12-18T12:40:49.293Z,-2.85
2022-12-18T12:43:22.362Z,-2.90
2022-12-18T12:46:11.250Z,-2.92
2022-12-18T12:48:47.402Z,-2.90
2022-12-18T12:51:20.082Z,-2.83
2022-12-18T12:53:49.888Z,-2.74
2022-12-18T12:56:20.431Z,-2.67
2022-12-18T12:58:57.265Z,-2.68
2022-12-18T13:01:37.089Z,-2.76
2022-12-18T13:04:23.125Z,-2.77
2022-12-18T13:07:03.009Z,-2.78
2022-12-18T13:09:32.489Z,-2.79
2022-12-18T13:12:30.510Z,-2.85
2022-12-18T13:15:22.003Z,-2.83
2022-12-18T13:17:49.727Z,-2.67
2022-12-18T13:20:17.289Z,-2.64
2022-12-18T13:22:49.976Z,-2.71
2022-12-18T13:25:38.043Z,-2.74
2022-12-18T13:28:16.136Z,-2.85
2022-12-18T13:30:57.493Z,-2.96
2022-12-18T13:33:51.020Z,-3.06
2022-12-18T13:36:34.810Z,-3.16
2022-12-18T13:39:19.695Z,-3.23
2022-12-18T13:41:53.542Z,-3.33
2022-12-18T13:44:40.027Z,-3.42
2022-12-18T13:47:32.986Z,-3.47
2022-12-18T13:50:10.990Z,-3.51
2022-12-18T13:52:40.701Z,-3.56
2022-12-18T13:55:17.908Z,-3.57
2022-12-18T13:57:45.657Z,-3.59
2022-12-18T14:00:26.862Z,-3.59
2022-12-18T14:02:54.962Z,-3.64
2022-12-18T14:05:24.405Z,-3.71
2022-12-18T14:07:54.531Z,-3.82
2022-12-18T14:10:44.410Z,-3.94
2022-12-18T14:13:25.479Z,-4.09
2022-12-18T14:15:54.436Z,-4.17
2022-12-18T14:18:57.564Z,-4.27
2022-12-18T14:21:38.798Z,-4.39
2022-12-18T14:24:23.204Z,-4.49
2022-12-18T14:26:51.653Z,-4.58
2022-12-18T14:29:31.864Z,-4.60
2022-12-18T14:32:18.681Z,-4.65
2022-12-18T14:34:51.043Z,-4.72
2022-12-18T14:37:26.439Z,-4.72
2022-12-18T14:40:02.188Z,-4.68
2022-12-18T14:42:32.652Z,-4.65
2022-12-18T14:45:42.404Z,-4.62
2022-12-18T14:48:22.942Z,-4.59
2022-12-18T14:51:03.423Z,-4.63
2022-12-18T14:53:34.065Z,-4.66
2022-12-18T14:56:02.881Z,-4.71
2022-12-18T14:58:30.598Z,-4.79
2022-12-18T15:00:58.514Z,-4.88
2022-12-18T15:03:26.213Z,-4.96
2022-12-18T15:05:54.675Z,-5.08
2022-12-18T15:08:35.882Z,-5.15
2022-12-18T15:11:06.602Z,-5.23
2022-12-18T15:13:36.725Z,-5.26
2022-12-18T15:16:04.229Z,-5.28
2022-12-18T15:18:36.269Z,-5.28
2022-12-18T15:21:15.215Z,-5.31
2022-12-18T15:23:46.153Z,-5.33
2022-12-18T15:26:16.693Z,-5.37
2022-12-18T15:28:50.922Z,-5.40
2022-12-18T15:31:30.054Z,-5.40
2022-12-18T15:33:59.922Z,-5.33
2022-12-18T15:36:30.972Z,-5.29
2022-12-18T15:39:05.071Z,-5.28
2022-12-18T15:41:36.527Z,-5.27
2022-12-18T15:44:22.999Z,-5.33
2022-12-18T15:46:50.922Z,-5.34
2022-12-18T15:49:18.231Z,-5.38
2022-12-18T15:51:49.497Z,-5.41
2022-12-18T15:54:17.809Z,-5.43
2022-12-18T15:57:03.463Z,-5.42
2022-12-18T15:59:30.934Z,-5.46
2022-12-18T16:01:58.562Z,-5.45
2022-12-18T16:04:26.333Z,-5.45
2022-12-18T16:09:41.368Z,-5.51
2022-12-18T16:12:21.741Z,-5.54
2022-12-18T16:14:49.465Z,-5.46
2022-12-18T16:17:17.086Z,-5.42
2022-12-18T16:19:44.876Z,-5.40
2022-12-18T16:22:20.513Z,-5.45
2022-12-18T16:24:48.977Z,-5.42
2022-12-18T16:27:16.676Z,-5.38
2022-12-18T16:29:44.241Z,-5.37
2022-12-18T16:32:18.171Z,-5.34
2022-12-18T16:34:45.995Z,-5.31
2022-12-18T16:37:15.396Z,-5.41
2022-12-18T16:39:43.183Z,-5.50
2022-12-18T16:42:19.572Z,-5.52
2022-12-18T16:44:48.892Z,-5.49
2022-12-18T16:47:17.189Z,-5.44
2022-12-18T16:49:46.068Z,-5.45
2022-12-18T16:52:14.409Z,-5.57
2022-12-18T16:54:41.783Z,-5.55
2022-12-18T16:57:16.712Z,-5.54
2022-12-18T16:59:44.406Z,-5.55
2022-12-18T17:02:23.423Z,-5.54
2022-12-18T17:04:57.013Z,-5.57
2022-12-18T17:07:25.864Z,-5.58
2022-12-18T17:09:54.391Z,-5.63
2022-12-18T17:12:22.484Z,-5.65
2022-12-18T17:14:50.025Z,-5.66
2022-12-18T17:17:21.792Z,-5.67
2022-12-18T17:19:50.066Z,-5.66
2022-12-18T17:22:18.145Z,-5.61
2022-12-18T17:24:50.099Z,-5.60
2022-12-18T17:27:17.778Z,-5.68
2022-12-18T17:29:48.264Z,-5.74
2022-12-18T17:32:17.865Z,-5.72
2022-12-18T17:34:46.113Z,-5.77
2022-12-18T17:37:14.098Z,-5.89
2022-12-18T17:39:44.540Z,-5.94
2022-12-18T17:42:15.350Z,-5.95
2022-12-18T17:44:44.471Z,-5.97
2022-12-18T17:47:13.629Z,-5.99
2022-12-18T17:49:40.950Z,-6.01
2022-12-18T17:52:08.551Z,-6.02
2022-12-18T17:54:39.191Z,-6.10
2022-12-18T17:57:06.396Z,-6.12
2022-12-18T17:59:34.848Z,-6.16
2022-12-18T18:02:02.216Z,-6.16
2022-12-18T18:04:40.812Z,-6.18
2022-12-18T18:07:37.545Z,-6.27
2022-12-18T18:10:22.589Z,-6.28
2022-12-18T18:13:44.944Z,-6.25
2022-12-18T18:16:43.081Z,-6.33
2022-12-18T18:19:37.867Z,-6.47
2022-12-18T18:22:38.641Z,-6.61
2022-12-18T18:25:28.115Z,-6.66
2022-12-18T18:28:26.995Z,-6.63
2022-12-18T18:31:19.966Z,-6.65
2022-12-18T18:34:15.963Z,-6.60
2022-12-18T18:37:17.677Z,-6.64
2022-12-18T18:40:07.899Z,-6.70
2022-12-18T18:43:01.828Z,-6.61
2022-12-18T18:45:39.459Z,-6.56
2022-12-18T18:48:14.453Z,-6.56
2022-12-18T18:50:45.375Z,-6.61
2022-12-18T18:53:12.697Z,-6.64
2022-12-18T18:55:41.139Z,-6.65
2022-12-18T18:58:08.602Z,-6.66
2022-12-18T19:00:36.218Z,-6.65
2022-12-18T19:03:04.386Z,-6.66
2022-12-18T19:05:33.688Z,-6.69
2022-12-18T19:08:00.994Z,-6.78
2022-12-18T19:10:29.193Z,-6.79
2022-12-18T19:13:15.963Z,-6.72
2022-12-18T19:15:45.759Z,-6.58
2022-12-18T19:18:13.501Z,-6.53
2022-12-18T19:20:41.521Z,-6.52
2022-12-18T19:23:09.740Z,-6.50
2022-12-18T19:25:41.653Z,-6.50
2022-12-18T19:28:21.945Z,-6.52
2022-12-18T19:30:58.576Z,-6.55
2022-12-18T19:33:44.598Z,-6.57
2022-12-18T19:36:20.811Z,-6.57
2022-12-18T19:38:50.176Z,-6.58
2022-12-18T19:41:18.861Z,-6.64
2022-12-18T19:43:47.892Z,-6.68
2022-12-18T19:46:17.942Z,-6.66
2022-12-18T19:48:46.733Z,-6.58
2022-12-18T19:51:18.550Z,-6.49
2022-12-18T19:53:46.993Z,-6.43
2022-12-18T19:56:17.004Z,-6.37
2022-12-18T19:58:45.209Z,-6.29
2022-12-18T20:01:20.462Z,-6.28
2022-12-18T20:03:52.433Z,-6.26
2022-12-18T20:06:27.658Z,-6.20
2022-12-18T20:09:00.050Z,-6.09
2022-12-18T20:11:29.956Z,-6.00
2022-12-18T20:13:57.964Z,-5.92
2022-12-18T20:16:25.323Z,-5.93
2022-12-18T20:18:55.769Z,-5.93
2022-12-18T20:21:23.833Z,-6.03
2022-12-18T20:23:51.500Z,-6.07
2022-12-18T20:26:19.424Z,-6.09
2022-12-18T20:28:47.520Z,-6.09
2022-12-18T20:31:14.893Z,-6.05
2022-12-18T20:33:43.129Z,-6.03
2022-12-18T20:36:21.278Z,-5.93
2022-12-18T20:38:56.960Z,-5.82
2022-12-18T20:41:25.401Z,-5.69
2022-12-18T20:43:52.622Z,-5.64
2022-12-18T20:46:20.477Z,-5.58
2022-12-18T20:48:48.628Z,-5.55
2022-12-18T20:51:21.078Z,-5.57
2022-12-18T20:53:48.562Z,-5.56
2022-12-18T20:56:21.184Z,-5.53
2022-12-18T20:58:51.336Z,-5.50
2022-12-18T21:01:24.194Z,-5.47
2022-12-18T21:03:52.545Z,-5.50
2022-12-18T21:06:22.062Z,-5.60
2022-12-18T21:08:49.389Z,-5.68
2022-12-18T21:11:38.826Z,-5.76
2022-12-18T21:14:13.503Z,-5.80
2022-12-18T21:16:43.671Z,-5.87
2022-12-18T21:19:12.792Z,-5.94
2022-12-18T21:21:41.426Z,-5.98
2022-12-18T21:24:09.948Z,-5.96
2022-12-18T21:26:44.829Z,-5.92
2022-12-18T21:29:16.530Z,-5.85
2022-12-18T21:31:45.000Z,-5.81
2022-12-18T21:34:20.017Z,-5.75
2022-12-18T21:36:48.332Z,-5.65
2022-12-18T21:39:15.918Z,-5.61
2022-12-18T21:42:03.104Z,-5.51
2022-12-18T21:44:31.540Z,-5.38
2022-12-18T21:47:13.751Z,-5.29
2022-12-18T21:49:52.580Z,-5.20
2022-12-18T21:52:31.582Z,-5.11
2022-12-18T21:55:09.521Z,-5.03
2022-12-18T21:57:38.200Z,-4.99
2022-12-18T22:00:11.256Z,-4.97
2022-12-18T22:02:47.264Z,-4.94
2022-12-18T22:05:15.248Z,-4.96
2022-12-18T22:07:42.533Z,-4.99
2022-12-18T22:10:10.120Z,-5.09
2022-12-18T22:12:44.466Z,-5.17
2022-12-18T22:15:21.709Z,-5.17
2022-12-18T22:17:50.834Z,-5.24
2022-12-18T22:20:20.064Z,-5.31
2022-12-18T22:22:51.153Z,-5.32
2022-12-18T22:25:18.932Z,-5.33
2022-12-18T22:28:06.375Z,-5.30
2022-12-18T22:30:34.536Z,-5.21
2022-12-18T22:33:02.154Z,-5.09
2022-12-18T22:35:29.418Z,-4.93
2022-12-18T22:38:00.764Z,-4.80
2022-12-18T22:40:28.412Z,-4.69
2022-12-18T22:42:55.937Z,-4.62
2022-12-18T22:45:27.543Z,-4.54
2022-12-18T22:47:54.924Z,-4.47
2022-12-18T22:50:22.266Z,-4.42
2022-12-18T22:52:49.886Z,-4.39
2022-12-18T22:55:17.017Z,-4.34
2022-12-18T22:57:48.729Z,-4.25
2022-12-18T23:00:24.255Z,-4.16
2022-12-18T23:03:00.359Z,-4.07
2022-12-18T23:05:30.988Z,-3.98
2022-12-18T23:07:58.846Z,-3.90
2022-12-18T23:10:27.008Z,-3.82
2022-12-18T23:12:55.389Z,-3.78
2022-12-18T23:15:27.891Z,-3.74
2022-12-18T23:17:59.605Z,-3.65
2022-12-18T23:20:27.582Z,-3.55
2022-12-18T23:22:54.770Z,-3.52
2022-12-18T23:25:23.193Z,-3.49
2022-12-18T23:27:50.752Z,-3.43
2022-12-18T23:30:18.177Z,-3.33
2022-12-18T23:32:46.725Z,-3.20
2022-12-18T23:35:14.275Z,-3.09
2022-12-18T23:38:00.103Z,-2.98
2022-12-18T23:40:29.610Z,-2.87
2022-12-18T23:42:58.667Z,-2.78
2022-12-18T23:45:25.904Z,-2.70
2022-12-18T23:47:54.083Z,-2.62
2022-12-18T23:50:27.701Z,-2.55
2022-12-18T23:53:04.606Z,-2.48
2022-12-18T23:55:38.969Z,-2.41
2022-12-18T23:58:08.935Z,-2.35
